createdAt,value
2022-11-13T00:03:27.245Z,10.67
2022-11-13T00:07:45.885Z,10.68
2022-11-13T00:12:04.349Z,10.72
2022-11-13T00:16:25.475Z,10.54
2022-11-13T00:20:44.021Z,10.66
2022-11-13T00:25:02.463Z,10.63
2022-11-13T00:29:20.930Z,10.65
2022-11-13T00:38:20.478Z,10.76
2022-11-13T00:42:39.138Z,10.64
2022-11-13T00:46:57.716Z,10.67
2022-11-13T00:51:19.772Z,10.64
2022-11-13T00:55:38.768Z,10.48
2022-11-13T00:59:57.275Z,10.54
2022-11-13T01:04:15.736Z,10.57
2022-11-13T01:08:37.080Z,10.45
2022-11-13T01:12:55.507Z,10.53
2022-11-13T01:17:14.149Z,10.50
2022-11-13T01:21:32.979Z,10.41
2022-11-13T01:25:54.184Z,10.33
2022-11-13T01:30:14.639Z,10.08
2022-11-13T01:34:33.332Z,10.07
2022-11-13T01:38:52.826Z,10.04
2022-11-13T01:43:34.833Z,9.97
2022-11-13T01:47:54.322Z,9.77
2022-11-13T01:52:18.263Z,9.72
2022-11-13T01:56:37.267Z,9.77
2022-11-13T02:00:58.930Z,9.81
2022-11-13T02:05:18.094Z,9.92
2022-11-13T02:09:42.866Z,9.87
2022-11-13T02:14:03.411Z,9.60
2022-11-13T02:18:26.975Z,9.41
2022-11-13T02:23:02.372Z,9.43
2022-11-13T02:27:33.204Z,9.12
2022-11-13T02:31:51.800Z,9.35
2022-11-13T02:36:13.124Z,9.29
2022-11-13T02:40:34.186Z,9.36
2022-11-13T02:44:55.457Z,9.26
2022-11-13T02:49:14.304Z,9.09
2022-11-13T02:53:33.148Z,9.06
2022-11-13T02:57:51.603Z,8.98
2022-11-13T03:02:12.759Z,8.95
2022-11-13T03:06:31.301Z,8.88
2022-11-13T03:10:50.196Z,8.85
2022-11-13T03:15:11.564Z,8.79
2022-11-13T03:19:32.774Z,8.71
2022-11-13T03:23:51.639Z,8.68
2022-11-13T03:28:10.114Z,8.66
2022-11-13T03:32:28.787Z,8.56
2022-11-13T03:36:50.129Z,8.42
2022-11-13T03:41:08.944Z,8.24
2022-11-13T03:45:27.604Z,8.20
2022-11-13T03:49:46.624Z,8.00
2022-11-13T03:54:08.009Z,8.05
2022-11-13T03:58:27.284Z,8.02
2022-11-13T04:02:46.283Z,7.80
2022-11-13T04:07:05.008Z,7.70
2022-11-13T04:11:26.462Z,7.61
2022-11-13T04:15:44.969Z,7.49
2022-11-13T04:20:03.466Z,7.39
2022-11-13T04:24:21.973Z,7.30
2022-11-13T04:28:43.139Z,7.05
2022-11-13T04:33:01.745Z,6.76
2022-11-13T04:37:20.245Z,6.92
2022-11-13T04:41:55.215Z,6.92
2022-11-13T04:46:16.950Z,6.77
2022-11-13T04:50:35.729Z,6.58
2022-11-13T04:54:54.272Z,6.63
2022-11-13T04:59:13.707Z,6.54
2022-11-13T05:03:34.728Z,6.59
2022-11-13T05:07:53.297Z,6.67
2022-11-13T05:12:12.130Z,6.61
2022-11-13T05:16:30.771Z,6.60
2022-11-13T05:20:52.086Z,6.32
2022-11-13T05:25:11.895Z,6.29
2022-11-13T05:29:30.579Z,6.58
2022-11-13T05:33:49.563Z,6.54
2022-11-13T05:38:10.696Z,6.50
2022-11-13T05:42:29.077Z,6.51
2022-11-13T05:46:47.562Z,6.49
2022-11-13T05:51:07.840Z,6.43
2022-11-13T05:55:28.871Z,6.43
2022-11-13T05:59:47.577Z,6.40
2022-11-13T06:04:08.733Z,6.38
2022-11-13T06:08:27.611Z,6.34
2022-11-13T06:12:49.485Z,6.33
2022-11-13T06:17:08.276Z,6.33
2022-11-13T06:21:29.944Z,6.09
2022-11-13T06:25:49.524Z,6.28
2022-11-13T06:30:13.571Z,6.29
2022-11-13T06:34:32.343Z,6.31
2022-11-13T06:38:51.868Z,6.10
2022-11-13T06:43:10.449Z,6.40
2022-11-13T06:47:31.775Z,6.55
2022-11-13T06:51:50.667Z,6.58
2022-11-13T06:56:11.172Z,6.56
2022-11-13T07:00:35.286Z,6.60
2022-11-13T07:04:58.461Z,6.95
2022-11-13T07:09:17.216Z,7.46
2022-11-13T07:13:35.608Z,7.81
2022-11-13T07:17:54.397Z,8.02
2022-11-13T07:22:15.697Z,8.35
2022-11-13T07:26:34.288Z,8.67
2022-11-13T07:30:52.913Z,8.84
2022-11-13T07:35:12.437Z,9.13
2022-11-13T07:39:33.707Z,9.42
2022-11-13T07:43:52.386Z,9.81
2022-11-13T07:48:12.534Z,10.07
2022-11-13T07:52:31.473Z,10.48
2022-11-13T07:56:53.167Z,10.87
2022-11-13T08:01:12.965Z,11.08
2022-11-13T08:05:33.782Z,11.41
2022-11-13T08:09:52.266Z,11.44
2022-11-13T08:14:13.972Z,11.85
2022-11-13T08:18:34.943Z,12.34
2022-11-13T08:22:54.419Z,12.71
2022-11-13T08:27:13.289Z,12.86
2022-11-13T08:31:34.606Z,13.22
2022-11-13T08:35:57.311Z,13.49
2022-11-13T08:40:16.806Z,13.46
2022-11-13T08:44:35.325Z,14.03
2022-11-13T08:48:56.309Z,14.32
2022-11-13T08:53:14.853Z,14.71
2022-11-13T08:57:33.784Z,15.42
2022-11-13T09:01:58.351Z,15.84
2022-11-13T09:06:19.561Z,16.54
2022-11-13T09:10:38.134Z,17.26
2022-11-13T09:14:56.515Z,17.68
2022-11-13T09:19:15.164Z,17.83
2022-11-13T09:23:36.436Z,18.18
2022-11-13T09:27:57.419Z,18.66
2022-11-13T09:32:16.385Z,18.66
2022-11-13T09:36:35.057Z,18.87
2022-11-13T09:41:01.862Z,19.44
2022-11-13T09:45:21.123Z,19.69
2022-11-13T09:49:46.825Z,20.45
2022-11-13T09:54:09.853Z,20.48
2022-11-13T09:58:47.170Z,20.03
2022-11-13T10:03:46.618Z,20.63
2022-11-13T10:08:16.954Z,20.33
2022-11-13T10:12:36.911Z,21.01
2022-11-13T10:17:05.477Z,20.93
2022-11-13T10:21:36.915Z,21.47
2022-11-13T10:25:58.526Z,21.85
2022-11-13T10:30:21.405Z,21.88
2022-11-13T10:34:45.685Z,21.78
2022-11-13T10:39:09.607Z,23.09
2022-11-13T10:43:29.802Z,22.84
2022-11-13T10:48:08.191Z,23.04
2022-11-13T10:52:31.675Z,22.44
2022-11-13T10:57:01.315Z,22.12
2022-11-13T11:01:26.093Z,20.98
2022-11-13T11:05:56.863Z,20.70
2022-11-13T11:10:33.595Z,21.53
2022-11-13T11:15:12.503Z,21.44
2022-11-13T11:19:40.828Z,21.18
2022-11-13T11:24:07.731Z,22.17
2022-11-13T11:28:38.970Z,22.10
2022-11-13T11:33:09.805Z,21.46
2022-11-13T11:37:38.821Z,23.43
2022-11-13T11:42:12.656Z,23.69
2022-11-13T11:46:33.952Z,24.92
2022-11-13T11:51:16.547Z,24.79
2022-11-13T11:56:00.127Z,26.18
2022-11-13T12:00:22.675Z,26.25
2022-11-13T12:05:06.201Z,26.72
2022-11-13T12:09:33.135Z,25.62
2022-11-13T12:14:06.388Z,25.21
2022-11-13T12:18:40.031Z,26.62
2022-11-13T12:23:18.022Z,26.93
2022-11-13T12:27:44.134Z,26.92
2022-11-13T12:32:18.625Z,28.14
2022-11-13T12:36:37.974Z,27.88
2022-11-13T12:41:11.140Z,28.40
2022-11-13T12:45:48.637Z,29.39
2022-11-13T12:50:31.821Z,29.98
2022-11-13T12:54:52.554Z,30.49
2022-11-13T12:59:36.555Z,28.56
2022-11-13T13:04:33.353Z,27.52
2022-11-13T13:09:19.112Z,28.14
2022-11-13T13:13:49.850Z,27.50
2022-11-13T13:18:29.862Z,26.52
2022-11-13T13:23:00.031Z,26.84
2022-11-13T13:27:26.816Z,26.08
2022-11-13T13:31:55.473Z,26.19
2022-11-13T13:36:32.634Z,26.28
2022-11-13T13:41:14.833Z,24.33
2022-11-13T13:45:50.278Z,23.30
2022-11-13T13:50:17.338Z,22.91
2022-11-13T13:54:43.085Z,22.64
2022-11-13T13:59:03.137Z,22.95
2022-11-13T14:03:26.211Z,23.10
2022-11-13T14:07:49.645Z,23.22
2022-11-13T14:12:22.828Z,22.55
2022-11-13T14:16:51.399Z,22.32
2022-11-13T14:21:18.228Z,21.13
2022-11-13T14:25:37.191Z,21.40
2022-11-13T14:30:02.384Z,20.75
2022-11-13T14:34:26.436Z,20.63
2022-11-13T14:38:52.239Z,19.67
2022-11-13T14:43:21.584Z,19.05
2022-11-13T14:47:44.034Z,18.92
2022-11-13T14:52:03.822Z,19.12
2022-11-13T14:56:22.739Z,19.13
2022-11-13T15:00:42.000Z,17.45
2022-11-13T15:05:03.620Z,17.45
2022-11-13T15:09:22.418Z,17.33
2022-11-13T15:13:41.099Z,16.52
2022-11-13T15:17:59.757Z,15.89
2022-11-13T15:22:27.309Z,15.30
2022-11-13T15:26:46.873Z,14.24
2022-11-13T15:31:06.226Z,13.29
2022-11-13T15:35:24.759Z,12.97
2022-11-13T15:39:46.058Z,12.73
2022-11-13T15:44:10.097Z,12.71
2022-11-13T15:48:28.530Z,12.22
2022-11-13T15:52:52.000Z,12.08
2022-11-13T15:57:22.959Z,12.30
2022-11-13T16:01:42.036Z,12.34
2022-11-13T16:06:02.173Z,11.99
2022-11-13T16:10:21.691Z,11.90
2022-11-13T16:14:43.727Z,11.75
2022-11-13T16:19:04.188Z,11.73
2022-11-13T16:23:22.952Z,11.40
2022-11-13T16:27:42.383Z,11.52
2022-11-13T16:32:03.720Z,11.46
2022-11-13T16:36:24.899Z,11.09
2022-11-13T16:40:45.630Z,11.23
2022-11-13T16:45:04.329Z,11.17
2022-11-13T16:49:25.541Z,11.34
2022-11-13T16:53:44.083Z,11.30
2022-11-13T16:58:02.687Z,11.15
2022-11-13T17:02:22.049Z,11.27
2022-11-13T17:06:43.272Z,11.21
2022-11-13T17:11:02.341Z,11.08
2022-11-13T17:15:24.237Z,11.27
2022-11-13T17:19:44.254Z,11.23
2022-11-13T17:24:06.912Z,11.28
2022-11-13T17:28:25.839Z,11.26
2022-11-13T17:32:44.426Z,11.26
2022-11-13T17:37:03.735Z,11.14
2022-11-13T17:41:25.028Z,11.09
2022-11-13T17:45:43.526Z,11.04
2022-11-13T17:50:06.969Z,11.06
2022-11-13T17:54:25.954Z,10.80
2022-11-13T17:58:48.814Z,10.88
2022-11-13T18:03:08.144Z,10.87
2022-11-13T18:07:26.658Z,10.62
2022-11-13T18:11:45.694Z,10.97
2022-11-13T18:16:14.494Z,10.96
2022-11-13T18:20:33.687Z,10.83
2022-11-13T18:24:52.295Z,10.95
2022-11-13T18:29:11.423Z,10.95
2022-11-13T18:33:33.169Z,10.98
2022-11-13T18:37:53.163Z,11.02
2022-11-13T18:42:12.090Z,11.10
2022-11-13T18:46:31.195Z,11.12
2022-11-13T18:51:02.663Z,11.19
2022-11-13T18:55:20.979Z,11.24
2022-11-13T18:59:39.629Z,11.07
2022-11-13T19:08:47.662Z,11.13
2022-11-13T19:13:06.749Z,11.08
2022-11-13T19:17:26.790Z,11.11
2022-11-13T19:21:46.337Z,11.00
2022-11-13T19:26:08.926Z,10.90
2022-11-13T19:30:27.805Z,10.73
2022-11-13T19:34:47.028Z,10.91
2022-11-13T19:39:06.634Z,10.84
2022-11-13T19:43:28.039Z,10.91
2022-11-13T19:47:46.722Z,10.83
2022-11-13T19:52:05.281Z,10.84
2022-11-13T19:56:26.052Z,10.90
2022-11-13T20:00:47.381Z,10.88
2022-11-13T20:05:06.188Z,10.40
2022-11-13T20:09:24.690Z,10.49
2022-11-13T20:13:44.900Z,10.51
2022-11-13T20:18:06.340Z,10.43
2022-11-13T20:22:25.153Z,10.24
2022-11-13T20:26:45.595Z,10.25
2022-11-13T20:31:10.154Z,10.25
2022-11-13T20:35:31.369Z,10.36
2022-11-13T20:39:50.363Z,10.30
2022-11-13T20:44:09.331Z,10.27
2022-11-13T20:48:29.880Z,10.22
2022-11-13T20:52:51.698Z,10.53
2022-11-13T20:57:10.575Z,10.38
2022-11-13T21:01:30.964Z,10.48
2022-11-13T21:05:49.899Z,10.41
2022-11-13T21:10:14.008Z,10.43
2022-11-13T21:14:32.767Z,10.24
2022-11-13T21:18:51.530Z,10.32
2022-11-13T21:23:10.274Z,10.38
2022-11-13T21:27:31.328Z,10.21
2022-11-13T21:31:49.800Z,10.08
2022-11-13T21:36:12.575Z,10.08
2022-11-13T21:40:31.064Z,10.06
2022-11-13T21:44:52.376Z,10.03
2022-11-13T21:49:13.918Z,9.78
2022-11-13T21:53:32.270Z,9.65
2022-11-13T21:57:50.760Z,9.59
2022-11-13T22:02:14.006Z,9.47
2022-11-13T22:06:36.606Z,9.53
2022-11-13T22:10:57.130Z,9.49
2022-11-13T22:15:15.787Z,9.50
2022-11-13T22:19:37.331Z,9.52
2022-11-13T22:23:56.622Z,9.47
2022-11-13T22:28:15.372Z,9.53
2022-11-13T22:32:34.500Z,9.79
2022-11-13T22:36:56.169Z,9.81
2022-11-13T22:41:22.654Z,9.96
2022-11-13T22:45:42.715Z,9.99
2022-11-13T22:50:01.389Z,10.05
2022-11-13T22:54:22.620Z,9.90
2022-11-13T22:58:41.430Z,10.03
2022-11-13T23:03:03.396Z,9.94
2022-11-13T23:07:25.091Z,9.64
2022-11-13T23:11:46.566Z,9.64
2022-11-13T23:16:05.670Z,9.53
2022-11-13T23:20:24.377Z,9.51
2022-11-13T23:24:42.932Z,9.44
2022-11-13T23:29:03.910Z,9.45
2022-11-13T23:33:23.005Z,9.43
2022-11-13T23:37:41.791Z,9.25
2022-11-13T23:42:00.245Z,9.21
2022-11-13T23:46:22.265Z,9.10
2022-11-13T23:50:41.064Z,8.89
2022-11-13T23:54:59.934Z,9.07
2022-11-13T23:59:18.343Z,9.05
